sensor_id;sensor_type;location;lat;lon;timestamp;P1;durP1;ratioP1;P2;durP2;ratioP2
142;SDS011;63667;49.046;8.468;2022-09-21T00:01:20;17.17;;;5.70;;
142;SDS011;63667;49.046;8.468;2022-09-21T00:04:02;13.53;;;6.73;;
142;SDS011;63667;49.046;8.468;2022-09-21T00:06:30;9.20;;;6.00;;
142;SDS011;63667;49.046;8.468;2022-09-21T00:08:59;18.23;;;6.23;;
142;SDS011;63667;49.046;8.468;2022-09-21T00:11:28;15.10;;;6.27;;
142;SDS011;63667;49.046;8.468;2022-09-21T00:13:58;12.63;;;6.30;;
142;SDS011;63667;49.046;8.468;2022-09-21T00:16:29;11.37;;;6.37;;
142;SDS011;63667;49.046;8.468;2022-09-21T00:18:57;10.57;;;6.23;;
142;SDS011;63667;49.046;8.468;2022-09-21T00:21:24;9.70;;;6.40;;
142;SDS011;63667;49.046;8.468;2022-09-21T00:23:53;14.63;;;6.90;;
142;SDS011;63667;49.046;8.468;2022-09-21T00:26:21;12.27;;;6.43;;
142;SDS011;63667;49.046;8.468;2022-09-21T00:28:51;13.13;;;7.10;;
142;SDS011;63667;49.046;8.468;2022-09-21T00:31:19;14.57;;;6.37;;
142;SDS011;63667;49.046;8.468;2022-09-21T00:33:47;10.67;;;6.70;;
142;SDS011;63667;49.046;8.468;2022-09-21T00:36:16;10.67;;;6.80;;
142;SDS011;63667;49.046;8.468;2022-09-21T00:38:59;12.23;;;6.37;;
142;SDS011;63667;49.046;8.468;2022-09-21T00:41:28;11.30;;;6.40;;
142;SDS011;63667;49.046;8.468;2022-09-21T00:46:50;16.13;;;6.30;;
142;SDS011;63667;49.046;8.468;2022-09-21T00:49:20;12.83;;;7.00;;
142;SDS011;63667;49.046;8.468;2022-09-21T00:51:48;14.70;;;6.47;;
142;SDS011;63667;49.046;8.468;2022-09-21T00:54:37;19.40;;;7.50;;
142;SDS011;63667;49.046;8.468;2022-09-21T00:57:09;18.73;;;7.63;;
142;SDS011;63667;49.046;8.468;2022-09-21T00:59:37;14.40;;;6.33;;
142;SDS011;63667;49.046;8.468;2022-09-21T01:02:06;11.87;;;6.80;;
142;SDS011;63667;49.046;8.468;2022-09-21T01:04:33;13.27;;;6.57;;
142;SDS011;63667;49.046;8.468;2022-09-21T01:07:01;19.50;;;6.57;;
142;SDS011;63667;49.046;8.468;2022-09-21T01:09:32;13.23;;;6.87;;
142;SDS011;63667;49.046;8.468;2022-09-21T01:12:10;20.90;;;6.80;;
142;SDS011;63667;49.046;8.468;2022-09-21T01:14:52;13.20;;;6.70;;
142;SDS011;63667;49.046;8.468;2022-09-21T01:17:45;12.33;;;6.13;;
142;SDS011;63667;49.046;8.468;2022-09-21T01:34:28;11.70;;;6.60;;
142;SDS011;63667;49.046;8.468;2022-09-21T01:36:57;11.50;;;6.60;;
142;SDS011;63667;49.046;8.468;2022-09-21T01:39:36;15.50;;;6.40;;
142;SDS011;63667;49.046;8.468;2022-09-21T01:42:07;9.97;;;6.00;;
142;SDS011;63667;49.046;8.468;2022-09-21T01:44:37;10.73;;;5.63;;
142;SDS011;63667;49.046;8.468;2022-09-21T01:47:06;12.47;;;5.77;;
142;SDS011;63667;49.046;8.468;2022-09-21T01:49:35;13.13;;;5.50;;
142;SDS011;63667;49.046;8.468;2022-09-21T01:52:16;10.93;;;6.27;;
142;SDS011;63667;49.046;8.468;2022-09-21T01:55:12;26.20;;;9.40;;
142;SDS011;63667;49.046;8.468;2022-09-21T01:57:55;17.03;;;8.17;;
142;SDS011;63667;49.046;8.468;2022-09-21T02:00:29;11.07;;;6.80;;
142;SDS011;63667;49.046;8.468;2022-09-21T02:03:02;18.70;;;7.03;;
142;SDS011;63667;49.046;8.468;2022-09-21T02:05:40;14.20;;;7.13;;
142;SDS011;63667;49.046;8.468;2022-09-21T02:08:08;11.17;;;6.57;;
142;SDS011;63667;49.046;8.468;2022-09-21T02:10:38;18.53;;;6.63;;
142;SDS011;63667;49.046;8.468;2022-09-21T02:13:13;12.63;;;6.87;;
142;SDS011;63667;49.046;8.468;2022-09-21T02:18:57;24.73;;;10.73;;
142;SDS011;63667;49.046;8.468;2022-09-21T02:21:55;12.47;;;6.90;;
142;SDS011;63667;49.046;8.468;2022-09-21T02:24:39;13.30;;;6.17;;
142;SDS011;63667;49.046;8.468;2022-09-21T02:27:44;12.70;;;7.20;;
142;SDS011;63667;49.046;8.468;2022-09-21T02:30:42;9.40;;;5.67;;
142;SDS011;63667;49.046;8.468;2022-09-21T02:33:31;9.40;;;5.97;;
142;SDS011;63667;49.046;8.468;2022-09-21T02:36:18;10.90;;;6.33;;
142;SDS011;63667;49.046;8.468;2022-09-21T02:39:08;10.47;;;6.20;;
142;SDS011;63667;49.046;8.468;2022-09-21T02:42:04;13.67;;;6.90;;
142;SDS011;63667;49.046;8.468;2022-09-21T02:45:27;11.43;;;6.00;;
142;SDS011;63667;49.046;8.468;2022-09-21T02:50:46;14.90;;;6.73;;
142;SDS011;63667;49.046;8.468;2022-09-21T02:53:19;11.60;;;5.80;;
142;SDS011;63667;49.046;8.468;2022-09-21T02:55:51;15.80;;;5.97;;
142;SDS011;63667;49.046;8.468;2022-09-21T02:58:19;13.00;;;6.63;;
142;SDS011;63667;49.046;8.468;2022-09-21T03:00:47;10.10;;;6.23;;
142;SDS011;63667;49.046;8.468;2022-09-21T03:05:47;17.20;;;8.40;;
142;SDS011;63667;49.046;8.468;2022-09-21T03:08:19;21.60;;;7.60;;
142;SDS011;63667;49.046;8.468;2022-09-21T03:10:46;11.70;;;6.70;;
142;SDS011;63667;49.046;8.468;2022-09-21T03:13:15;10.03;;;6.30;;
142;SDS011;63667;49.046;8.468;2022-09-21T03:15:42;14.33;;;6.23;;
142;SDS011;63667;49.046;8.468;2022-09-21T03:18:10;13.23;;;6.17;;
142;SDS011;63667;49.046;8.468;2022-09-21T03:20:39;25.63;;;6.80;;
142;SDS011;63667;49.046;8.468;2022-09-21T03:23:11;12.67;;;6.40;;
142;SDS011;63667;49.046;8.468;2022-09-21T03:25:38;12.10;;;6.33;;
142;SDS011;63667;49.046;8.468;2022-09-21T03:28:05;12.43;;;6.40;;
142;SDS011;63667;49.046;8.468;2022-09-21T03:30:31;9.47;;;6.13;;
142;SDS011;63667;49.046;8.468;2022-09-21T03:33:02;12.90;;;7.13;;
142;SDS011;63667;49.046;8.468;2022-09-21T03:35:30;14.80;;;7.17;;
142;SDS011;63667;49.046;8.468;2022-09-21T03:38:00;22.43;;;7.03;;
142;SDS011;63667;49.046;8.468;2022-09-21T03:40:27;14.40;;;6.30;;
142;SDS011;63667;49.046;8.468;2022-09-21T03:42:54;8.77;;;5.73;;
142;SDS011;63667;49.046;8.468;2022-09-21T03:45:20;15.73;;;7.43;;
142;SDS011;63667;49.046;8.468;2022-09-21T03:47:46;15.07;;;7.03;;
142;SDS011;63667;49.046;8.468;2022-09-21T03:50:14;11.53;;;6.33;;
142;SDS011;63667;49.046;8.468;2022-09-21T03:52:40;10.60;;;6.67;;
142;SDS011;63667;49.046;8.468;2022-09-21T03:55:07;14.43;;;6.43;;
142;SDS011;63667;49.046;8.468;2022-09-21T03:57:34;12.17;;;6.47;;
142;SDS011;63667;49.046;8.468;2022-09-21T04:00:03;11.83;;;6.27;;
142;SDS011;63667;49.046;8.468;2022-09-21T04:02:33;11.07;;;6.30;;
142;SDS011;63667;49.046;8.468;2022-09-21T04:05:02;21.93;;;6.00;;
142;SDS011;63667;49.046;8.468;2022-09-21T04:07:32;11.07;;;5.40;;
142;SDS011;63667;49.046;8.468;2022-09-21T04:10:04;8.37;;;5.63;;
142;SDS011;63667;49.046;8.468;2022-09-21T04:12:33;12.47;;;5.80;;
142;SDS011;63667;49.046;8.468;2022-09-21T04:15:02;9.13;;;5.87;;
142;SDS011;63667;49.046;8.468;2022-09-21T04:17:32;11.07;;;5.83;;
142;SDS011;63667;49.046;8.468;2022-09-21T04:20:00;11.90;;;5.97;;
142;SDS011;63667;49.046;8.468;2022-09-21T04:22:29;9.83;;;6.43;;
142;SDS011;63667;49.046;8.468;2022-09-21T04:24:56;17.57;;;7.17;;
142;SDS011;63667;49.046;8.468;2022-09-21T04:27:22;10.47;;;6.20;;
142;SDS011;63667;49.046;8.468;2022-09-21T04:29:49;9.20;;;5.70;;
142;SDS011;63667;49.046;8.468;2022-09-21T04:32:15;11.33;;;6.13;;
142;SDS011;63667;49.046;8.468;2022-09-21T04:34:41;12.30;;;6.03;;
142;SDS011;63667;49.046;8.468;2022-09-21T04:37:08;10.10;;;5.97;;
142;SDS011;63667;49.046;8.468;2022-09-21T04:39:37;10.70;;;5.90;;
142;SDS011;63667;49.046;8.468;2022-09-21T04:42:03;16.53;;;7.63;;
142;SDS011;63667;49.046;8.468;2022-09-21T04:44:29;9.50;;;6.40;;
142;SDS011;63667;49.046;8.468;2022-09-21T04:46:57;12.40;;;6.43;;
142;SDS011;63667;49.046;8.468;2022-09-21T04:49:25;19.63;;;6.50;;
142;SDS011;63667;49.046;8.468;2022-09-21T04:51:52;10.30;;;6.30;;
142;SDS011;63667;49.046;8.468;2022-09-21T04:54:20;15.97;;;6.77;;
142;SDS011;63667;49.046;8.468;2022-09-21T04:56:48;18.67;;;6.93;;
142;SDS011;63667;49.046;8.468;2022-09-21T04:59:15;14.37;;;6.53;;
142;SDS011;63667;49.046;8.468;2022-09-21T05:01:43;12.10;;;6.30;;
142;SDS011;63667;49.046;8.468;2022-09-21T05:04:10;11.03;;;5.70;;
142;SDS011;63667;49.046;8.468;2022-09-21T05:06:38;10.57;;;6.07;;
142;SDS011;63667;49.046;8.468;2022-09-21T05:09:05;13.23;;;6.73;;
142;SDS011;63667;49.046;8.468;2022-09-21T05:11:51;11.27;;;6.43;;
142;SDS011;63667;49.046;8.468;2022-09-21T05:14:19;12.67;;;7.10;;
142;SDS011;63667;49.046;8.468;2022-09-21T05:16:47;14.33;;;6.87;;
142;SDS011;63667;49.046;8.468;2022-09-21T05:19:15;13.57;;;7.17;;
142;SDS011;63667;49.046;8.468;2022-09-21T05:21:43;14.37;;;7.00;;
142;SDS011;63667;49.046;8.468;2022-09-21T05:24:11;13.50;;;6.90;;
142;SDS011;63667;49.046;8.468;2022-09-21T05:26:39;13.70;;;7.20;;
142;SDS011;63667;49.046;8.468;2022-09-21T05:29:21;11.53;;;6.80;;
142;SDS011;63667;49.046;8.468;2022-09-21T05:31:53;10.33;;;6.60;;
142;SDS011;63667;49.046;8.468;2022-09-21T05:40:03;10.80;;;7.27;;
142;SDS011;63667;49.046;8.468;2022-09-21T05:42:33;18.07;;;7.67;;
142;SDS011;63667;49.046;8.468;2022-09-21T05:45:01;18.10;;;7.20;;
142;SDS011;63667;49.046;8.468;2022-09-21T05:50:17;24.20;;;8.07;;
142;SDS011;63667;49.046;8.468;2022-09-21T05:55:33;13.47;;;7.10;;
142;SDS011;63667;49.046;8.468;2022-09-21T05:58:59;14.53;;;7.90;;
142;SDS011;63667;49.046;8.468;2022-09-21T06:04:11;18.50;;;9.00;;
142;SDS011;63667;49.046;8.468;2022-09-21T06:06:40;18.10;;;9.10;;
142;SDS011;63667;49.046;8.468;2022-09-21T06:09:07;15.57;;;8.50;;
142;SDS011;63667;49.046;8.468;2022-09-21T06:11:38;13.87;;;7.40;;
142;SDS011;63667;49.046;8.468;2022-09-21T06:14:06;17.30;;;8.30;;
142;SDS011;63667;49.046;8.468;2022-09-21T06:16:40;19.33;;;8.27;;
142;SDS011;63667;49.046;8.468;2022-09-21T06:19:11;16.47;;;8.87;;
142;SDS011;63667;49.046;8.468;2022-09-21T06:21:39;15.90;;;8.40;;
142;SDS011;63667;49.046;8.468;2022-09-21T06:24:08;23.33;;;8.90;;
142;SDS011;63667;49.046;8.468;2022-09-21T06:26:36;18.40;;;8.60;;
142;SDS011;63667;49.046;8.468;2022-09-21T06:29:04;17.20;;;8.40;;
142;SDS011;63667;49.046;8.468;2022-09-21T06:31:31;12.63;;;8.20;;
142;SDS011;63667;49.046;8.468;2022-09-21T06:34:00;15.80;;;8.27;;
142;SDS011;63667;49.046;8.468;2022-09-21T06:36:28;15.57;;;8.30;;
142;SDS011;63667;49.046;8.468;2022-09-21T06:38:56;14.10;;;8.47;;
142;SDS011;63667;49.046;8.468;2022-09-21T06:41:23;21.30;;;8.63;;
142;SDS011;63667;49.046;8.468;2022-09-21T06:43:53;16.93;;;8.80;;
142;SDS011;63667;49.046;8.468;2022-09-21T06:46:21;18.53;;;7.67;;
142;SDS011;63667;49.046;8.468;2022-09-21T06:48:49;19.30;;;8.10;;
142;SDS011;63667;49.046;8.468;2022-09-21T06:51:16;14.67;;;8.40;;
142;SDS011;63667;49.046;8.468;2022-09-21T06:53:46;18.90;;;8.60;;
142;SDS011;63667;49.046;8.468;2022-09-21T06:56:13;19.03;;;8.37;;
142;SDS011;63667;49.046;8.468;2022-09-21T06:58:41;13.27;;;8.50;;
142;SDS011;63667;49.046;8.468;2022-09-21T07:01:11;18.13;;;8.83;;
142;SDS011;63667;49.046;8.468;2022-09-21T07:03:39;20.57;;;8.30;;
142;SDS011;63667;49.046;8.468;2022-09-21T07:06:08;17.10;;;9.07;;
142;SDS011;63667;49.046;8.468;2022-09-21T07:08:39;14.57;;;8.80;;
142;SDS011;63667;49.046;8.468;2022-09-21T07:11:07;16.17;;;8.80;;
142;SDS011;63667;49.046;8.468;2022-09-21T07:13:35;18.50;;;8.60;;
142;SDS011;63667;49.046;8.468;2022-09-21T07:16:06;24.87;;;8.97;;
142;SDS011;63667;49.046;8.468;2022-09-21T07:18:35;11.20;;;7.50;;
142;SDS011;63667;49.046;8.468;2022-09-21T07:21:04;16.20;;;9.30;;
142;SDS011;63667;49.046;8.468;2022-09-21T07:23:33;25.43;;;10.03;;
142;SDS011;63667;49.046;8.468;2022-09-21T07:26:09;18.33;;;9.40;;
142;SDS011;63667;49.046;8.468;2022-09-21T07:28:38;19.67;;;9.00;;
142;SDS011;63667;49.046;8.468;2022-09-21T07:31:06;15.00;;;8.10;;
142;SDS011;63667;49.046;8.468;2022-09-21T07:33:39;17.70;;;9.57;;
142;SDS011;63667;49.046;8.468;2022-09-21T07:36:26;24.93;;;9.83;;
142;SDS011;63667;49.046;8.468;2022-09-21T07:38:54;18.23;;;9.43;;
142;SDS011;63667;49.046;8.468;2022-09-21T07:41:22;18.40;;;10.40;;
142;SDS011;63667;49.046;8.468;2022-09-21T07:43:50;31.30;;;10.33;;
142;SDS011;63667;49.046;8.468;2022-09-21T07:46:18;19.60;;;9.90;;
142;SDS011;63667;49.046;8.468;2022-09-21T07:48:46;15.30;;;9.60;;
142;SDS011;63667;49.046;8.468;2022-09-21T07:51:15;19.77;;;10.30;;
142;SDS011;63667;49.046;8.468;2022-09-21T07:53:42;17.10;;;10.23;;
142;SDS011;63667;49.046;8.468;2022-09-21T07:56:19;22.53;;;10.57;;
142;SDS011;63667;49.046;8.468;2022-09-21T07:58:58;18.53;;;10.13;;
142;SDS011;63667;49.046;8.468;2022-09-21T08:01:33;18.23;;;9.13;;
142;SDS011;63667;49.046;8.468;2022-09-21T08:04:05;14.77;;;8.80;;
142;SDS011;63667;49.046;8.468;2022-09-21T08:06:34;15.77;;;9.07;;
142;SDS011;63667;49.046;8.468;2022-09-21T08:09:05;17.43;;;9.60;;
142;SDS011;63667;49.046;8.468;2022-09-21T08:11:33;20.67;;;9.37;;
142;SDS011;63667;49.046;8.468;2022-09-21T08:14:02;20.60;;;9.80;;
142;SDS011;63667;49.046;8.468;2022-09-21T08:16:29;16.83;;;8.70;;
142;SDS011;63667;49.046;8.468;2022-09-21T08:18:58;21.00;;;9.50;;
142;SDS011;63667;49.046;8.468;2022-09-21T08:21:27;15.20;;;9.00;;
142;SDS011;63667;49.046;8.468;2022-09-21T08:23:56;18.10;;;8.80;;
142;SDS011;63667;49.046;8.468;2022-09-21T08:26:23;18.53;;;8.67;;
142;SDS011;63667;49.046;8.468;2022-09-21T08:28:52;17.97;;;9.00;;
142;SDS011;63667;49.046;8.468;2022-09-21T08:31:23;14.27;;;8.63;;
142;SDS011;63667;49.046;8.468;2022-09-21T08:33:51;13.90;;;9.17;;
142;SDS011;63667;49.046;8.468;2022-09-21T08:36:19;16.30;;;9.23;;
142;SDS011;63667;49.046;8.468;2022-09-21T08:38:47;16.57;;;8.70;;
142;SDS011;63667;49.046;8.468;2022-09-21T08:43:54;17.27;;;9.43;;
142;SDS011;63667;49.046;8.468;2022-09-21T08:46:30;15.90;;;9.90;;
142;SDS011;63667;49.046;8.468;2022-09-21T08:49:06;17.87;;;8.47;;
142;SDS011;63667;49.046;8.468;2022-09-21T08:54:56;13.77;;;8.50;;
142;SDS011;63667;49.046;8.468;2022-09-21T08:57:43;13.23;;;8.27;;
142;SDS011;63667;49.046;8.468;2022-09-21T09:00:14;12.03;;;7.20;;
142;SDS011;63667;49.046;8.468;2022-09-21T09:19:31;13.20;;;6.63;;
142;SDS011;63667;49.046;8.468;2022-09-21T09:22:14;15.60;;;6.77;;
142;SDS011;63667;49.046;8.468;2022-09-21T09:24:50;11.37;;;6.37;;
142;SDS011;63667;49.046;8.468;2022-09-21T09:27:25;11.47;;;5.77;;
142;SDS011;63667;49.046;8.468;2022-09-21T09:35:24;7.90;;;4.90;;
142;SDS011;63667;49.046;8.468;2022-09-21T09:37:55;6.17;;;3.90;;
142;SDS011;63667;49.046;8.468;2022-09-21T09:40:47;5.93;;;4.60;;
142;SDS011;63667;49.046;8.468;2022-09-21T09:43:29;6.90;;;4.43;;
142;SDS011;63667;49.046;8.468;2022-09-21T09:46:10;7.87;;;4.40;;
142;SDS011;63667;49.046;8.468;2022-09-21T09:51:37;9.20;;;3.27;;
142;SDS011;63667;49.046;8.468;2022-09-21T09:54:04;3.60;;;3.17;;
142;SDS011;63667;49.046;8.468;2022-09-21T09:56:37;6.27;;;3.70;;
142;SDS011;63667;49.046;8.468;2022-09-21T09:59:05;10.37;;;3.90;;
142;SDS011;63667;49.046;8.468;2022-09-21T10:01:43;6.47;;;3.37;;
142;SDS011;63667;49.046;8.468;2022-09-21T10:04:13;5.67;;;3.70;;
142;SDS011;63667;49.046;8.468;2022-09-21T10:06:42;4.77;;;3.23;;
142;SDS011;63667;49.046;8.468;2022-09-21T10:09:17;7.70;;;3.57;;
142;SDS011;63667;49.046;8.468;2022-09-21T10:12:00;8.63;;;3.30;;
142;SDS011;63667;49.046;8.468;2022-09-21T10:14:50;9.67;;;3.27;;
142;SDS011;63667;49.046;8.468;2022-09-21T10:17:19;4.87;;;3.23;;
142;SDS011;63667;49.046;8.468;2022-09-21T10:19:57;10.67;;;3.40;;
142;SDS011;63667;49.046;8.468;2022-09-21T10:22:26;6.73;;;3.40;;
142;SDS011;63667;49.046;8.468;2022-09-21T10:24:55;7.70;;;3.30;;
142;SDS011;63667;49.046;8.468;2022-09-21T10:27:32;8.67;;;3.17;;
142;SDS011;63667;49.046;8.468;2022-09-21T10:30:00;11.40;;;3.30;;
142;SDS011;63667;49.046;8.468;2022-09-21T10:32:28;4.20;;;3.20;;
142;SDS011;63667;49.046;8.468;2022-09-21T10:34:59;4.00;;;3.10;;
142;SDS011;63667;49.046;8.468;2022-09-21T10:37:39;7.40;;;2.80;;
142;SDS011;63667;49.046;8.468;2022-09-21T10:42:42;5.60;;;3.83;;
142;SDS011;63667;49.046;8.468;2022-09-21T10:47:45;4.60;;;3.57;;
142;SDS011;63667;49.046;8.468;2022-09-21T10:50:45;7.33;;;3.67;;
142;SDS011;63667;49.046;8.468;2022-09-21T10:55:58;6.67;;;3.70;;
142;SDS011;63667;49.046;8.468;2022-09-21T10:58:29;4.90;;;3.07;;
142;SDS011;63667;49.046;8.468;2022-09-21T11:01:12;4.40;;;3.50;;
142;SDS011;63667;49.046;8.468;2022-09-21T11:03:50;5.97;;;3.30;;
142;SDS011;63667;49.046;8.468;2022-09-21T11:09:11;4.97;;;2.70;;
142;SDS011;63667;49.046;8.468;2022-09-21T11:11:45;3.53;;;2.70;;
142;SDS011;63667;49.046;8.468;2022-09-21T11:14:52;3.70;;;2.63;;
142;SDS011;63667;49.046;8.468;2022-09-21T11:17:44;4.40;;;2.60;;
142;SDS011;63667;49.046;8.468;2022-09-21T11:25:45;6.00;;;2.63;;
142;SDS011;63667;49.046;8.468;2022-09-21T11:28:38;2.40;;;2.17;;
142;SDS011;63667;49.046;8.468;2022-09-21T11:35:06;4.67;;;2.50;;
142;SDS011;63667;49.046;8.468;2022-09-21T11:37:10;3.13;;;2.20;;
142;SDS011;63667;49.046;8.468;2022-09-21T11:40:24;3.80;;;2.50;;
142;SDS011;63667;49.046;8.468;2022-09-21T11:48:41;2.90;;;2.30;;
142;SDS011;63667;49.046;8.468;2022-09-21T11:51:16;5.80;;;2.17;;
142;SDS011;63667;49.046;8.468;2022-09-21T12:05:33;4.10;;;2.13;;
142;SDS011;63667;49.046;8.468;2022-09-21T12:13:41;2.30;;;1.80;;
142;SDS011;63667;49.046;8.468;2022-09-21T12:22:01;2.60;;;2.50;;
142;SDS011;63667;49.046;8.468;2022-09-21T12:25:00;5.73;;;2.40;;
142;SDS011;63667;49.046;8.468;2022-09-21T12:30:20;2.40;;;2.13;;
142;SDS011;63667;49.046;8.468;2022-09-21T12:35:41;2.30;;;2.03;;
142;SDS011;63667;49.046;8.468;2022-09-21T12:43:48;7.73;;;2.40;;
142;SDS011;63667;49.046;8.468;2022-09-21T12:46:35;2.20;;;1.90;;
142;SDS011;63667;49.046;8.468;2022-09-21T12:49:20;2.77;;;1.97;;
142;SDS011;63667;49.046;8.468;2022-09-21T12:51:54;3.40;;;2.20;;
142;SDS011;63667;49.046;8.468;2022-09-21T12:57:48;2.53;;;1.80;;
142;SDS011;63667;49.046;8.468;2022-09-21T13:00:23;2.50;;;2.00;;
142;SDS011;63667;49.046;8.468;2022-09-21T13:03:20;3.20;;;2.30;;
142;SDS011;63667;49.046;8.468;2022-09-21T13:06:25;5.13;;;2.30;;
142;SDS011;63667;49.046;8.468;2022-09-21T13:08:59;4.33;;;2.10;;
142;SDS011;63667;49.046;8.468;2022-09-21T13:11:29;5.07;;;2.37;;
142;SDS011;63667;49.046;8.468;2022-09-21T13:13:59;3.30;;;2.03;;
142;SDS011;63667;49.046;8.468;2022-09-21T13:16:29;7.00;;;2.17;;
142;SDS011;63667;49.046;8.468;2022-09-21T13:21:46;3.53;;;2.40;;
142;SDS011;63667;49.046;8.468;2022-09-21T13:27:56;4.93;;;2.10;;
142;SDS011;63667;49.046;8.468;2022-09-21T13:33:01;3.17;;;2.33;;
142;SDS011;63667;49.046;8.468;2022-09-21T13:38:30;3.00;;;2.10;;
142;SDS011;63667;49.046;8.468;2022-09-21T13:41:25;3.20;;;2.23;;
142;SDS011;63667;49.046;8.468;2022-09-21T13:54:26;2.90;;;2.20;;
142;SDS011;63667;49.046;8.468;2022-09-21T14:00:05;2.30;;;1.80;;
142;SDS011;63667;49.046;8.468;2022-09-21T14:02:34;4.20;;;1.80;;
142;SDS011;63667;49.046;8.468;2022-09-21T14:05:08;3.13;;;2.10;;
142;SDS011;63667;49.046;8.468;2022-09-21T14:07:47;7.97;;;2.40;;
142;SDS011;63667;49.046;8.468;2022-09-21T14:10:22;2.27;;;2.10;;
142;SDS011;63667;49.046;8.468;2022-09-21T14:12:50;3.87;;;1.93;;
142;SDS011;63667;49.046;8.468;2022-09-21T14:20:33;4.90;;;2.10;;
142;SDS011;63667;49.046;8.468;2022-09-21T14:23:10;3.63;;;1.90;;
142;SDS011;63667;49.046;8.468;2022-09-21T14:25:54;2.23;;;1.87;;
142;SDS011;63667;49.046;8.468;2022-09-21T14:28:27;2.20;;;1.90;;
142;SDS011;63667;49.046;8.468;2022-09-21T14:31:21;3.33;;;1.87;;
142;SDS011;63667;49.046;8.468;2022-09-21T14:33:57;2.67;;;1.93;;
142;SDS011;63667;49.046;8.468;2022-09-21T14:36:38;6.90;;;2.00;;
142;SDS011;63667;49.046;8.468;2022-09-21T14:39:14;3.20;;;2.00;;
142;SDS011;63667;49.046;8.468;2022-09-21T14:42:25;2.20;;;1.90;;
142;SDS011;63667;49.046;8.468;2022-09-21T14:44:57;3.33;;;1.90;;
142;SDS011;63667;49.046;8.468;2022-09-21T15:10:17;3.07;;;2.10;;
142;SDS011;63667;49.046;8.468;2022-09-21T15:24:54;2.50;;;1.90;;
142;SDS011;63667;49.046;8.468;2022-09-21T15:27:23;4.93;;;2.00;;
142;SDS011;63667;49.046;8.468;2022-09-21T15:29:54;4.17;;;2.00;;
142;SDS011;63667;49.046;8.468;2022-09-21T15:32:41;2.10;;;2.00;;
142;SDS011;63667;49.046;8.468;2022-09-21T15:35:21;2.97;;;2.20;;
142;SDS011;63667;49.046;8.468;2022-09-21T15:37:53;4.20;;;2.10;;
142;SDS011;63667;49.046;8.468;2022-09-21T15:40:23;2.20;;;2.03;;
142;SDS011;63667;49.046;8.468;2022-09-21T15:48:05;4.30;;;2.10;;
142;SDS011;63667;49.046;8.468;2022-09-21T15:50:37;2.80;;;2.13;;
142;SDS011;63667;49.046;8.468;2022-09-21T15:53:13;2.70;;;2.10;;
142;SDS011;63667;49.046;8.468;2022-09-21T15:55:45;6.73;;;2.07;;
142;SDS011;63667;49.046;8.468;2022-09-21T15:58:26;3.80;;;2.20;;
142;SDS011;63667;49.046;8.468;2022-09-21T16:01:15;6.53;;;2.87;;
142;SDS011;63667;49.046;8.468;2022-09-21T16:04:04;4.63;;;1.80;;
142;SDS011;63667;49.046;8.468;2022-09-21T16:06:36;5.50;;;2.30;;
142;SDS011;63667;49.046;8.468;2022-09-21T16:11:56;7.87;;;2.30;;
142;SDS011;63667;49.046;8.468;2022-09-21T16:14:24;3.17;;;2.20;;
142;SDS011;63667;49.046;8.468;2022-09-21T16:19:41;3.80;;;2.30;;
142;SDS011;63667;49.046;8.468;2022-09-21T16:22:35;6.80;;;2.20;;
142;SDS011;63667;49.046;8.468;2022-09-21T16:25:32;4.20;;;2.70;;
142;SDS011;63667;49.046;8.468;2022-09-21T16:30:50;5.03;;;2.40;;
142;SDS011;63667;49.046;8.468;2022-09-21T16:38:47;2.50;;;2.27;;
142;SDS011;63667;49.046;8.468;2022-09-21T16:41:21;7.10;;;2.67;;
142;SDS011;63667;49.046;8.468;2022-09-21T16:43:52;3.83;;;2.33;;
142;SDS011;63667;49.046;8.468;2022-09-21T16:46:25;3.73;;;2.40;;
142;SDS011;63667;49.046;8.468;2022-09-21T16:48:52;5.17;;;2.20;;
142;SDS011;63667;49.046;8.468;2022-09-21T16:51:20;3.57;;;2.20;;
142;SDS011;63667;49.046;8.468;2022-09-21T16:53:50;2.70;;;2.33;;
142;SDS011;63667;49.046;8.468;2022-09-21T16:56:18;4.80;;;2.70;;
142;SDS011;63667;49.046;8.468;2022-09-21T16:58:45;2.60;;;2.33;;
142;SDS011;63667;49.046;8.468;2022-09-21T17:01:14;3.37;;;2.50;;
142;SDS011;63667;49.046;8.468;2022-09-21T17:03:45;4.20;;;2.40;;
142;SDS011;63667;49.046;8.468;2022-09-21T17:06:14;2.43;;;2.20;;
142;SDS011;63667;49.046;8.468;2022-09-21T17:08:47;4.83;;;2.40;;
142;SDS011;63667;49.046;8.468;2022-09-21T17:11:14;3.00;;;2.50;;
142;SDS011;63667;49.046;8.468;2022-09-21T17:13:45;3.80;;;2.40;;
142;SDS011;63667;49.046;8.468;2022-09-21T17:16:14;4.33;;;2.53;;
142;SDS011;63667;49.046;8.468;2022-09-21T17:18:46;4.10;;;2.40;;
142;SDS011;63667;49.046;8.468;2022-09-21T17:21:30;2.57;;;2.13;;
142;SDS011;63667;49.046;8.468;2022-09-21T17:23:58;3.23;;;2.30;;
142;SDS011;63667;49.046;8.468;2022-09-21T17:26:25;6.10;;;3.27;;
142;SDS011;63667;49.046;8.468;2022-09-21T17:28:53;5.50;;;2.80;;
142;SDS011;63667;49.046;8.468;2022-09-21T17:31:20;4.90;;;3.07;;
142;SDS011;63667;49.046;8.468;2022-09-21T17:33:50;6.93;;;2.93;;
142;SDS011;63667;49.046;8.468;2022-09-21T17:36:18;3.20;;;2.53;;
142;SDS011;63667;49.046;8.468;2022-09-21T17:38:47;3.67;;;2.60;;
142;SDS011;63667;49.046;8.468;2022-09-21T17:41:24;3.30;;;2.80;;
142;SDS011;63667;49.046;8.468;2022-09-21T17:44:16;5.20;;;2.70;;
142;SDS011;63667;49.046;8.468;2022-09-21T17:46:57;2.63;;;2.43;;
142;SDS011;63667;49.046;8.468;2022-09-21T17:49:31;5.10;;;3.00;;
142;SDS011;63667;49.046;8.468;2022-09-21T17:51:59;3.77;;;3.07;;
142;SDS011;63667;49.046;8.468;2022-09-21T17:54:47;4.87;;;2.73;;
142;SDS011;63667;49.046;8.468;2022-09-21T18:00:05;3.20;;;2.20;;
142;SDS011;63667;49.046;8.468;2022-09-21T18:02:59;4.40;;;2.80;;
142;SDS011;63667;49.046;8.468;2022-09-21T18:05:29;5.47;;;2.80;;
142;SDS011;63667;49.046;8.468;2022-09-21T18:07:57;4.37;;;3.03;;
142;SDS011;63667;49.046;8.468;2022-09-21T18:10:26;5.57;;;3.30;;
142;SDS011;63667;49.046;8.468;2022-09-21T18:15:34;4.23;;;3.50;;
142;SDS011;63667;49.046;8.468;2022-09-21T18:18:29;3.43;;;3.20;;
142;SDS011;63667;49.046;8.468;2022-09-21T18:21:20;7.87;;;3.93;;
142;SDS011;63667;49.046;8.468;2022-09-21T18:26:33;7.23;;;3.87;;
142;SDS011;63667;49.046;8.468;2022-09-21T18:29:01;5.37;;;3.57;;
142;SDS011;63667;49.046;8.468;2022-09-21T18:40:10;8.00;;;4.20;;
142;SDS011;63667;49.046;8.468;2022-09-21T18:45:45;7.40;;;5.40;;
142;SDS011;63667;49.046;8.468;2022-09-21T18:53:54;6.80;;;4.30;;
142;SDS011;63667;49.046;8.468;2022-09-21T18:56:21;7.43;;;5.87;;
142;SDS011;63667;49.046;8.468;2022-09-21T18:58:50;9.20;;;6.70;;
142;SDS011;63667;49.046;8.468;2022-09-21T19:01:18;9.23;;;5.97;;
142;SDS011;63667;49.046;8.468;2022-09-21T19:03:48;10.30;;;5.37;;
142;SDS011;63667;49.046;8.468;2022-09-21T19:22:48;10.13;;;5.30;;
142;SDS011;63667;49.046;8.468;2022-09-21T19:25:43;8.43;;;4.60;;
142;SDS011;63667;49.046;8.468;2022-09-21T19:31:02;9.90;;;5.20;;
142;SDS011;63667;49.046;8.468;2022-09-21T19:33:39;7.77;;;5.10;;
142;SDS011;63667;49.046;8.468;2022-09-21T19:36:10;7.80;;;4.43;;
142;SDS011;63667;49.046;8.468;2022-09-21T19:38:37;6.47;;;3.93;;
142;SDS011;63667;49.046;8.468;2022-09-21T19:41:11;7.77;;;3.87;;
142;SDS011;63667;49.046;8.468;2022-09-21T19:43:52;8.40;;;4.60;;
142;SDS011;63667;49.046;8.468;2022-09-21T19:46:26;11.67;;;7.33;;
142;SDS011;63667;49.046;8.468;2022-09-21T19:49:01;18.80;;;10.13;;
142;SDS011;63667;49.046;8.468;2022-09-21T19:51:48;15.27;;;8.60;;
142;SDS011;63667;49.046;8.468;2022-09-21T19:54:22;11.90;;;7.30;;
142;SDS011;63667;49.046;8.468;2022-09-21T19:57:12;11.90;;;6.67;;
142;SDS011;63667;49.046;8.468;2022-09-21T20:00:03;8.07;;;5.07;;
142;SDS011;63667;49.046;8.468;2022-09-21T20:08:34;7.90;;;5.23;;
142;SDS011;63667;49.046;8.468;2022-09-21T20:13:43;8.07;;;5.33;;
142;SDS011;63667;49.046;8.468;2022-09-21T20:16:30;9.83;;;6.20;;
142;SDS011;63667;49.046;8.468;2022-09-21T20:19:14;10.70;;;5.23;;